Huron, Ohio
Current Conditions -  °F | °C
As of 7:10 AM on Thursday 23 Oct 2014 (Local Time) from KPCW Reporting Station
Scattered Clouds Scattered Clouds  
Wind Chill: 44°   Ceiling: Unl
Heat Index: 46°   Visibility: 10mi
Dew Point: 43°   Wind: 5mph
Humidity: 87%   Direction: 360°N
Pressure: 30.22"   Gusts: NA
Location:  41.39°N, 82.56°W
Report Text: KPCW 231110Z AUTO 36004KT 10SM SCT011 08/06 A3022 RMK AO2 $
Loading
Personal Weather Stations






























Interactive Weather Map
Tropical Storm Tracking
New forecast layout! Learn more

10-Day Weather Forecast

Advertisements
Track Severe Weather on mobile